createdAt,value
2018-03-27T00:00:16.068Z,1010.99
2018-03-27T00:01:16.084Z,1010.98
2018-03-27T00:02:16.098Z,1010.97
2018-03-27T00:04:16.132Z,1010.97
2018-03-27T00:05:16.161Z,1011
2018-03-27T00:06:16.160Z,1011
2018-03-27T00:07:16.176Z,1010.97
2018-03-27T00:08:16.192Z,1010.98
2018-03-27T00:09:16.211Z,1010.95
2018-03-27T00:10:16.223Z,1010.94
2018-03-27T00:11:16.238Z,1010.97
2018-03-27T00:12:16.252Z,1010.98
2018-03-27T00:13:16.269Z,1010.96
2018-03-27T00:14:16.284Z,1010.99
2018-03-27T00:15:16.300Z,1011
2018-03-27T00:16:16.316Z,1011
2018-03-27T00:17:16.331Z,1011.02
2018-03-27T00:18:16.347Z,1011.01
2018-03-27T00:20:16.378Z,1011
2018-03-27T00:21:16.393Z,1011.02
2018-03-27T00:22:16.409Z,1011.01
2018-03-27T00:23:16.425Z,1011.02
2018-03-27T00:24:16.439Z,1011.01
2018-03-27T00:25:16.455Z,1011
2018-03-27T00:26:16.471Z,1010.99
2018-03-27T00:27:16.486Z,1010.99
2018-03-27T00:28:16.506Z,1010.98
2018-03-27T00:29:16.517Z,1011
2018-03-27T00:30:16.533Z,1010.99
2018-03-27T00:31:16.549Z,1010.99
2018-03-27T00:32:16.564Z,1011.02
2018-03-27T00:33:16.580Z,1011.03
2018-03-27T00:34:16.595Z,1011.02
2018-03-27T00:36:16.625Z,1011.06
2018-03-27T00:37:16.645Z,1011.06
2018-03-27T00:38:16.657Z,1011.06
2018-03-27T00:39:16.673Z,1011.07
2018-03-27T00:40:16.687Z,1011.05
2018-03-27T00:41:16.709Z,1011.06
2018-03-27T00:42:16.719Z,1011.05
2018-03-27T00:43:16.732Z,1011.07
2018-03-27T00:44:16.749Z,1011.1
2018-03-27T00:45:16.765Z,1011.1
2018-03-27T00:46:16.781Z,1011.09
2018-03-27T00:47:16.799Z,1011.11
2018-03-27T00:48:16.812Z,1011.11
2018-03-27T00:49:16.836Z,1011.07
2018-03-27T00:50:16.842Z,1011.07
2018-03-27T00:52:16.875Z,1011.12
2018-03-27T00:53:16.889Z,1011.09
2018-03-27T00:54:16.904Z,1011.11
2018-03-27T00:55:16.921Z,1011.06
2018-03-27T00:56:16.936Z,1011.1
2018-03-27T00:57:16.951Z,1011.12
2018-03-27T00:58:16.966Z,1011.09
2018-03-27T00:59:16.981Z,1011.1
2018-03-27T01:00:16.998Z,1011.12
2018-03-27T01:01:17.013Z,1011.1
2018-03-27T01:02:17.031Z,1011.04
2018-03-27T01:03:17.048Z,1011.1
2018-03-27T01:04:17.060Z,1011.1
2018-03-27T01:05:17.076Z,1011.08
2018-03-27T01:07:17.107Z,1011.06
2018-03-27T01:08:17.123Z,1011.11
2018-03-27T01:09:17.137Z,1011.07
2018-03-27T01:10:17.156Z,1011.1
2018-03-27T01:11:17.170Z,1011.08
2018-03-27T01:12:17.185Z,1011.08
2018-03-27T01:13:17.199Z,1011.11
2018-03-27T01:14:17.216Z,1011.13
2018-03-27T01:15:17.231Z,1011.09
2018-03-27T01:16:17.245Z,1011.09
2018-03-27T01:17:17.262Z,1011.13
2018-03-27T01:18:17.378Z,1011.1
2018-03-27T01:19:17.292Z,1011.12
2018-03-27T01:20:17.358Z,1011.13
2018-03-27T01:21:17.324Z,1011.12
2018-03-27T01:22:17.340Z,1011.12
2018-03-27T01:23:17.355Z,1011.08
2018-03-27T01:24:17.370Z,1011.12
2018-03-27T01:25:17.386Z,1011.09
2018-03-27T01:26:17.406Z,1011.11
2018-03-27T01:27:17.419Z,1011.08
2018-03-27T01:28:17.431Z,1011.12
2018-03-27T01:29:17.450Z,1011.09
2018-03-27T01:30:17.462Z,1011.11
2018-03-27T01:31:17.476Z,1011.07
2018-03-27T01:32:17.497Z,1011.06
2018-03-27T01:33:17.510Z,1011.06
2018-03-27T01:34:17.524Z,1011.05
2018-03-27T01:35:17.540Z,1011
2018-03-27T01:36:17.555Z,1011.04
2018-03-27T01:37:17.570Z,1011.03
2018-03-27T01:39:17.602Z,1011.07
2018-03-27T01:40:17.616Z,1011.02
2018-03-27T01:41:17.631Z,1011.06
2018-03-27T01:42:17.648Z,1011.05
2018-03-27T01:43:17.671Z,1011.07
2018-03-27T01:44:17.679Z,1011.07
2018-03-27T01:45:17.693Z,1011.07
2018-03-27T01:46:17.714Z,1011.09
2018-03-27T01:47:17.727Z,1011.05
2018-03-27T01:48:17.738Z,1011.07
2018-03-27T01:49:17.755Z,1011.09
2018-03-27T01:50:17.771Z,1011.09
2018-03-27T01:51:17.786Z,1011.09
2018-03-27T01:52:17.811Z,1011.09
2018-03-27T01:53:17.817Z,1011.07
2018-03-27T01:55:17.847Z,1011.1
2018-03-27T01:56:17.861Z,1011.12
2018-03-27T01:57:17.877Z,1011.15
2018-03-27T01:58:17.893Z,1011.16
2018-03-27T01:59:17.907Z,1011.12
2018-03-27T02:00:17.922Z,1011.13
2018-03-27T02:01:17.939Z,1011.18
2018-03-27T02:02:17.955Z,1011.18
2018-03-27T02:03:17.969Z,1011.14
2018-03-27T02:04:17.983Z,1011.11
2018-03-27T02:05:18.000Z,1011.1
2018-03-27T02:06:18.023Z,1011.16
2018-03-27T02:07:18.029Z,1011.11
2018-03-27T02:08:18.046Z,1011.07
2018-03-27T02:09:18.069Z,1011.08
2018-03-27T02:11:18.092Z,1011.09
2018-03-27T02:12:18.107Z,1011.13
2018-03-27T02:13:18.122Z,1011.11
2018-03-27T02:14:18.136Z,1011.06
2018-03-27T02:15:18.152Z,1011.09
2018-03-27T02:16:18.168Z,1011.09
2018-03-27T02:17:18.186Z,1011.05
2018-03-27T02:18:18.197Z,1011.1
2018-03-27T02:19:18.213Z,1011.1
2018-03-27T02:20:18.227Z,1011.09
2018-03-27T02:21:18.243Z,1011.13
2018-03-27T02:22:18.258Z,1011.07
2018-03-27T02:23:18.274Z,1011.08
2018-03-27T02:24:18.290Z,1011.09
2018-03-27T02:25:18.304Z,1011.06
2018-03-27T02:27:18.335Z,1011.04
2018-03-27T02:28:18.349Z,1011.04
2018-03-27T02:29:18.365Z,1011.07
2018-03-27T02:30:18.381Z,1011.05
2018-03-27T02:31:18.395Z,1011.03
2018-03-27T02:32:18.410Z,1011.04
2018-03-27T02:33:18.435Z,1011.07
2018-03-27T02:34:18.442Z,1011.05
2018-03-27T02:35:18.456Z,1011.05
2018-03-27T02:36:18.472Z,1011.09
2018-03-27T02:37:18.487Z,1011.08
2018-03-27T02:38:18.511Z,1011.05
2018-03-27T02:39:18.516Z,1011.09
2018-03-27T02:40:18.533Z,1011.12
2018-03-27T02:42:18.565Z,1011.06
2018-03-27T02:43:18.579Z,1011.09
2018-03-27T02:44:18.594Z,1011.05
2018-03-27T02:45:18.610Z,1011.09
2018-03-27T02:46:18.624Z,1011.08
2018-03-27T02:47:18.639Z,1011.1
2018-03-27T02:48:18.655Z,1011.12
2018-03-27T02:49:18.673Z,1011.17
2018-03-27T02:50:18.683Z,1011.13
2018-03-27T02:51:18.700Z,1011.17
2018-03-27T02:52:18.715Z,1011.16
2018-03-27T02:53:18.732Z,1011.15
2018-03-27T02:54:18.746Z,1011.11
2018-03-27T02:55:18.766Z,1011.13
2018-03-27T02:56:18.776Z,1011.14
2018-03-27T02:57:18.891Z,1011.12
2018-03-27T02:58:18.807Z,1011.11
2018-03-27T02:59:18.822Z,1011.15
2018-03-27T03:00:18.838Z,1011.17
2018-03-27T03:01:18.852Z,1011.13
2018-03-27T03:02:18.868Z,1011.11
2018-03-27T03:03:18.884Z,1011.15
2018-03-27T03:04:18.898Z,1011.14
2018-03-27T03:05:18.914Z,1011.13
2018-03-27T03:06:18.928Z,1011.09
2018-03-27T03:07:18.943Z,1011.1
2018-03-27T03:08:18.963Z,1011.12
2018-03-27T03:09:18.972Z,1011.14
2018-03-27T03:10:18.989Z,1011.16
2018-03-27T03:11:19.004Z,1011.15
2018-03-27T03:12:19.027Z,1011.11
2018-03-27T03:14:19.049Z,1011.12
2018-03-27T03:15:19.069Z,1011.14
2018-03-27T03:16:19.078Z,1011.13
2018-03-27T03:17:19.095Z,1011.08
2018-03-27T03:18:19.111Z,1011.13
2018-03-27T03:19:19.126Z,1011.1
2018-03-27T03:20:19.140Z,1011.06
2018-03-27T03:21:19.156Z,1011.05
2018-03-27T03:22:19.171Z,1011.06
2018-03-27T03:23:19.185Z,1011.07
2018-03-27T03:24:19.200Z,1011.01
2018-03-27T03:25:19.222Z,1011.03
2018-03-27T03:26:19.233Z,1011.04
2018-03-27T03:27:19.246Z,1011.05
2018-03-27T03:28:19.288Z,1011.03
2018-03-27T03:30:19.295Z,1011.02
2018-03-27T03:31:19.308Z,1011
2018-03-27T03:32:19.323Z,1010.99
2018-03-27T03:33:19.345Z,1011.04
2018-03-27T03:34:19.353Z,1011.01
2018-03-27T03:35:19.369Z,1011.05
2018-03-27T03:36:19.384Z,1011.02
2018-03-27T03:37:19.400Z,1010.99
2018-03-27T03:38:19.474Z,1011
2018-03-27T03:39:19.431Z,1010.99
2018-03-27T03:40:19.447Z,1010.96
2018-03-27T03:41:19.461Z,1011.03
2018-03-27T03:42:19.476Z,1010.98
2018-03-27T03:43:19.491Z,1010.96
2018-03-27T03:44:19.508Z,1010.97
2018-03-27T03:46:19.538Z,1011.01
2018-03-27T03:47:19.569Z,1011.02
2018-03-27T03:48:19.568Z,1010.97
2018-03-27T03:49:19.584Z,1011
2018-03-27T03:50:19.599Z,1010.94
2018-03-27T03:51:19.613Z,1010.96
2018-03-27T03:52:19.631Z,1010.95
2018-03-27T03:53:19.645Z,1010.96
2018-03-27T03:54:19.661Z,1010.95
2018-03-27T03:55:19.676Z,1010.93
2018-03-27T03:56:19.691Z,1010.97
2018-03-27T03:57:19.712Z,1010.97
2018-03-27T03:58:19.722Z,1010.97
2018-03-27T03:59:19.738Z,1010.95
2018-03-27T04:00:19.754Z,1010.96
2018-03-27T04:02:19.783Z,1010.99
2018-03-27T04:03:19.800Z,1010.97
2018-03-27T04:04:19.864Z,1010.98
2018-03-27T04:05:19.832Z,1010.97
2018-03-27T04:06:19.845Z,1010.96
2018-03-27T04:07:19.860Z,1010.94
2018-03-27T04:08:19.876Z,1010.94
2018-03-27T04:09:19.891Z,1010.91
2018-03-27T04:10:19.907Z,1010.91
2018-03-27T04:11:19.929Z,1010.94
2018-03-27T04:12:19.937Z,1010.97
2018-03-27T04:13:19.951Z,1010.96
2018-03-27T04:14:19.968Z,1010.97
2018-03-27T04:15:19.983Z,1011.02
2018-03-27T04:17:20.016Z,1011.06
2018-03-27T04:18:20.030Z,1011.05
2018-03-27T04:19:20.046Z,1011.08
2018-03-27T04:20:20.061Z,1011.09
2018-03-27T04:21:20.077Z,1011.06
2018-03-27T04:22:20.091Z,1011.08
2018-03-27T04:23:20.107Z,1011.04
2018-03-27T04:24:20.122Z,1011.03
2018-03-27T04:25:20.144Z,1011.06
2018-03-27T04:26:20.152Z,1011.08
2018-03-27T04:27:20.167Z,1011.06
2018-03-27T04:28:20.182Z,1011.04
2018-03-27T04:29:20.204Z,1011.07
2018-03-27T04:30:20.212Z,1011.02
2018-03-27T04:31:20.229Z,1011.03
2018-03-27T04:32:20.243Z,1011.04
2018-03-27T04:33:20.262Z,1011.04
2018-03-27T04:34:20.272Z,1011.13
2018-03-27T04:35:20.287Z,1011.08
2018-03-27T04:36:20.303Z,1011.09
2018-03-27T04:37:20.316Z,1011.07
2018-03-27T04:38:20.334Z,1011.11
2018-03-27T04:39:20.353Z,1011.11
2018-03-27T04:40:20.363Z,1011.14
2018-03-27T04:41:20.375Z,1011.12
2018-03-27T04:42:20.391Z,1011.15
2018-03-27T04:43:20.407Z,1011.14
2018-03-27T04:44:20.421Z,1011.13
2018-03-27T04:45:20.436Z,1011.1
2018-03-27T04:46:20.451Z,1011.12
2018-03-27T04:47:20.465Z,1011.11
2018-03-27T04:49:20.495Z,1011.12
2018-03-27T04:50:20.511Z,1011.09
2018-03-27T04:51:20.525Z,1011.06
2018-03-27T04:52:20.539Z,1011.07
2018-03-27T04:53:20.554Z,1011.09
2018-03-27T04:54:20.569Z,1011.06
2018-03-27T04:55:20.582Z,1011.05
2018-03-27T04:56:20.599Z,1011.01
2018-03-27T04:57:20.614Z,1011.02
2018-03-27T04:58:20.631Z,1010.99
2018-03-27T04:59:20.643Z,1011
2018-03-27T05:00:20.659Z,1010.95
2018-03-27T05:01:20.673Z,1010.99
2018-03-27T05:02:20.744Z,1010.96
2018-03-27T05:03:20.702Z,1010.96
2018-03-27T05:05:20.733Z,1010.93
2018-03-27T05:06:20.748Z,1010.94
2018-03-27T05:07:20.762Z,1010.93
2018-03-27T05:08:20.777Z,1010.96
2018-03-27T05:09:20.791Z,1010.98
2018-03-27T05:10:20.806Z,1011
2018-03-27T05:11:20.822Z,1011.02
2018-03-27T05:12:20.847Z,1011.06
2018-03-27T05:13:20.849Z,1011.12
2018-03-27T05:14:20.866Z,1011.12
2018-03-27T05:15:20.882Z,1011.14
2018-03-27T05:16:20.897Z,1011.2
2018-03-27T05:17:20.911Z,1011.21
2018-03-27T05:18:20.926Z,1011.19
2018-03-27T05:19:21.042Z,1011.2
2018-03-27T05:21:20.971Z,1011.23
2018-03-27T05:22:20.986Z,1011.21
2018-03-27T05:23:21.002Z,1011.22
2018-03-27T05:24:21.015Z,1011.21
2018-03-27T05:25:21.031Z,1011.25
2018-03-27T05:26:21.045Z,1011.24
2018-03-27T05:27:21.062Z,1011.29
2018-03-27T05:28:21.077Z,1011.31
2018-03-27T05:29:21.092Z,1011.32
2018-03-27T05:30:21.158Z,1011.29
2018-03-27T05:31:21.121Z,1011.36
2018-03-27T05:32:21.137Z,1011.44
2018-03-27T05:33:21.154Z,1011.42
2018-03-27T05:34:21.169Z,1011.36
2018-03-27T05:35:21.184Z,1011.36
2018-03-27T05:37:21.216Z,1011.33
2018-03-27T05:38:21.238Z,1011.3
2018-03-27T05:39:21.247Z,1011.33
2018-03-27T05:40:21.264Z,1011.35
2018-03-27T05:41:21.279Z,1011.42
2018-03-27T05:42:21.294Z,1011.38
2018-03-27T05:43:21.309Z,1011.43
2018-03-27T05:44:21.326Z,1011.42
2018-03-27T05:45:21.342Z,1011.42
2018-03-27T05:46:21.357Z,1011.4
2018-03-27T05:47:21.373Z,1011.42
2018-03-27T05:48:21.392Z,1011.42
2018-03-27T05:49:21.411Z,1011.42
2018-03-27T05:50:21.426Z,1011.41
2018-03-27T05:52:21.453Z,1011.47
2018-03-27T05:53:21.468Z,1011.45
2018-03-27T05:54:21.484Z,1011.48
2018-03-27T05:55:21.500Z,1011.43
2018-03-27T05:56:21.515Z,1011.45
2018-03-27T05:57:21.530Z,1011.41
2018-03-27T05:58:21.547Z,1011.41
2018-03-27T05:59:21.562Z,1011.44
2018-03-27T06:00:21.578Z,1011.43
2018-03-27T06:01:21.596Z,1011.4
2018-03-27T06:02:21.612Z,1011.32
2018-03-27T06:03:21.626Z,1011.38
2018-03-27T06:04:21.643Z,1011.37
2018-03-27T06:05:21.659Z,1011.39
2018-03-27T06:06:21.674Z,1011.39
2018-03-27T06:07:21.692Z,1011.34
2018-03-27T06:08:21.706Z,1011.03
2018-03-27T06:09:21.722Z,1011.07
2018-03-27T06:10:21.739Z,1011.05
2018-03-27T06:11:21.759Z,1011.02
2018-03-27T06:12:21.772Z,1011.07
2018-03-27T06:13:21.792Z,1011.12
2018-03-27T06:14:21.811Z,1011.16
2018-03-27T06:15:21.828Z,1011.28
2018-03-27T06:16:21.847Z,1011.64
2018-03-27T06:17:21.968Z,1011.73
2018-03-27T06:18:21.888Z,1011.68
2018-03-27T06:19:21.908Z,1011.71
2018-03-27T06:20:21.928Z,1011.7
2018-03-27T06:21:21.948Z,1011.69
2018-03-27T06:22:21.967Z,1011.71
2018-03-27T06:24:22.008Z,1011.64
2018-03-27T06:25:22.028Z,1011.62
2018-03-27T06:26:22.046Z,1011.63
2018-03-27T06:27:22.069Z,1011.64
2018-03-27T06:28:22.085Z,1011.6
2018-03-27T06:29:22.104Z,1011.58
2018-03-27T06:30:22.122Z,1011.58
2018-03-27T06:31:22.142Z,1011.58
2018-03-27T06:32:22.162Z,1011.64
2018-03-27T06:33:22.178Z,1011.7
2018-03-27T06:34:22.197Z,1011.75
2018-03-27T06:35:22.218Z,1011.76
2018-03-27T06:36:22.234Z,1011.79
2018-03-27T06:37:22.253Z,1011.83
2018-03-27T06:38:22.271Z,1011.82
2018-03-27T06:40:22.311Z,1011.93
2018-03-27T06:41:22.330Z,1011.89
2018-03-27T06:42:22.352Z,1011.94
2018-03-27T06:43:22.372Z,1011.94
2018-03-27T06:44:22.395Z,1012.04
2018-03-27T06:45:22.415Z,1012.12
2018-03-27T06:46:22.443Z,1012.09
2018-03-27T06:47:22.460Z,1012.18
2018-03-27T06:48:22.480Z,1012.23
2018-03-27T06:49:22.504Z,1012.24
2018-03-27T06:50:22.527Z,1012.26
2018-03-27T06:51:22.552Z,1012.36
2018-03-27T06:52:22.575Z,1012.35
2018-03-27T06:53:22.599Z,1011.96
2018-03-27T06:54:22.624Z,1012.29
2018-03-27T06:56:22.673Z,1012.28
2018-03-27T06:57:22.700Z,1012.3
2018-03-27T06:58:22.724Z,1012.37
2018-03-27T06:59:22.748Z,1012.4
2018-03-27T07:00:22.773Z,1012.46
2018-03-27T07:01:22.838Z,1012.51
2018-03-27T07:02:22.825Z,1012.53
2018-03-27T07:03:22.850Z,1012.51
2018-03-27T07:04:22.875Z,1012.51
2018-03-27T07:05:22.935Z,1012.45
2018-03-27T07:06:22.957Z,1012.46
2018-03-27T07:07:22.977Z,1012.48
2018-03-27T07:08:22.981Z,1012.08
2018-03-27T07:09:23.010Z,1012.41
2018-03-27T07:10:23.067Z,1012.35
2018-03-27T07:12:23.096Z,1011.83
2018-03-27T07:13:23.121Z,1011.84
2018-03-27T07:14:23.152Z,1011.83
2018-03-27T07:15:23.201Z,1011.92
2018-03-27T07:16:23.232Z,1011.79
2018-03-27T07:17:23.220Z,1011.84
2018-03-27T07:18:23.246Z,1011.85
2018-03-27T07:19:23.273Z,1011.95
2018-03-27T07:20:23.323Z,1012.28
2018-03-27T07:21:23.321Z,1012.15
2018-03-27T07:22:23.347Z,1012.48
2018-03-27T07:23:23.372Z,1012.34
2018-03-27T07:24:23.405Z,1012.07
2018-03-27T07:25:23.423Z,1011.98
2018-03-27T07:27:23.474Z,1012.33
2018-03-27T07:28:23.499Z,1012.4
2018-03-27T07:29:23.524Z,1012.43
2018-03-27T07:30:23.550Z,1012.19
2018-03-27T07:31:23.576Z,1012.21
2018-03-27T07:32:23.603Z,1012.37
2018-03-27T07:33:23.627Z,1012.04
2018-03-27T07:34:23.652Z,1012
2018-03-27T07:35:23.678Z,1012.06
2018-03-27T07:36:23.704Z,1012.19
2018-03-27T07:37:23.730Z,1011.83
2018-03-27T07:38:23.756Z,1011.78
2018-03-27T07:39:23.783Z,1011.66
2018-03-27T07:40:23.807Z,1011.64
2018-03-27T07:41:23.833Z,1011.64
2018-03-27T07:42:23.859Z,1011.6
2018-03-27T07:43:23.883Z,1011.65
2018-03-27T07:44:23.909Z,1011.67
2018-03-27T07:45:23.934Z,1011.68
2018-03-27T07:46:23.958Z,1011.68
2018-03-27T07:47:23.982Z,1011.7
2018-03-27T07:48:24.007Z,1011.68
2018-03-27T07:49:24.032Z,1011.74
2018-03-27T07:50:24.055Z,1011.7
2018-03-27T07:51:24.079Z,1011.72
2018-03-27T07:52:24.104Z,1011.79
2018-03-27T07:53:24.128Z,1011.76
2018-03-27T07:54:24.149Z,1011.77
2018-03-27T07:55:24.173Z,1011.74
2018-03-27T07:56:24.196Z,1011.73
2018-03-27T07:57:24.221Z,1011.68
2018-03-27T07:59:24.265Z,1011.73
2018-03-27T08:00:24.288Z,1011.73
2018-03-27T08:01:24.310Z,1011.71
2018-03-27T08:02:24.341Z,1011.71
2018-03-27T08:03:24.364Z,1011.74
2018-03-27T08:04:24.385Z,1011.79
2018-03-27T08:05:24.399Z,1011.75
2018-03-27T08:06:24.422Z,1011.74
2018-03-27T08:07:24.445Z,1011.72
2018-03-27T08:08:24.467Z,1011.69
2018-03-27T08:09:24.490Z,1011.66
2018-03-27T08:10:24.516Z,1011.62
2018-03-27T08:11:24.536Z,1011.65
2018-03-27T08:12:24.558Z,1011.69
2018-03-27T08:13:24.581Z,1011.64
2018-03-27T08:15:24.626Z,1011.67
2018-03-27T08:16:24.648Z,1011.67
2018-03-27T08:17:24.672Z,1011.69
2018-03-27T08:18:24.722Z,1011.68
2018-03-27T08:19:24.717Z,1011.61
2018-03-27T08:20:24.741Z,1011.62
2018-03-27T08:21:24.765Z,1011.71
2018-03-27T08:22:24.790Z,1011.64
2018-03-27T08:23:24.821Z,1011.67
2018-03-27T08:24:24.881Z,1011.68
2018-03-27T08:25:24.864Z,1011.72
2018-03-27T08:26:24.885Z,1011.73
2018-03-27T08:27:24.910Z,1011.74
2018-03-27T08:28:25.034Z,1011.7
2018-03-27T08:29:24.960Z,1011.73
2018-03-27T08:31:25.010Z,1011.71
2018-03-27T08:32:25.034Z,1011.7
2018-03-27T08:33:25.060Z,1011.68
2018-03-27T08:34:25.084Z,1011.63
2018-03-27T08:35:25.109Z,1011.64
2018-03-27T08:36:25.207Z,1011.62
2018-03-27T08:37:25.161Z,1011.58
2018-03-27T08:38:25.185Z,1011.63
2018-03-27T08:39:25.228Z,1011.63
2018-03-27T08:40:25.237Z,1011.59
2018-03-27T08:41:25.262Z,1011.58
2018-03-27T08:42:25.289Z,1011.58
2018-03-27T08:43:25.325Z,1011.53
2018-03-27T08:44:25.351Z,1011.58
2018-03-27T08:45:25.367Z,1011.56
2018-03-27T08:47:25.420Z,1011.59
2018-03-27T08:48:25.445Z,1011.6
2018-03-27T08:49:25.476Z,1011.6
2018-03-27T08:50:25.497Z,1011.59
2018-03-27T08:51:25.523Z,1011.63
2018-03-27T08:52:25.549Z,1011.61
2018-03-27T08:53:25.577Z,1011.62
2018-03-27T08:54:25.601Z,1011.63
2018-03-27T08:55:25.628Z,1011.55
2018-03-27T08:56:25.654Z,1011.58
2018-03-27T08:57:25.681Z,1011.59
2018-03-27T08:58:25.707Z,1011.55
2018-03-27T08:59:25.733Z,1011.56
2018-03-27T09:00:25.804Z,1011.49
2018-03-27T09:02:25.813Z,1011.53
2018-03-27T09:03:25.838Z,1011.58
2018-03-27T09:04:25.865Z,1011.61
2018-03-27T09:05:25.894Z,1011.59
2018-03-27T09:06:25.919Z,1011.63
2018-03-27T09:07:25.967Z,1011.61
2018-03-27T09:08:25.972Z,1011.61
2018-03-27T09:09:25.998Z,1011.57
2018-03-27T09:10:26.026Z,1011.61
2018-03-27T09:11:26.050Z,1011.6
2018-03-27T09:12:26.080Z,1011.58
2018-03-27T09:13:26.104Z,1011.55
2018-03-27T09:14:26.129Z,1011.52
2018-03-27T09:15:26.156Z,1011.57
2018-03-27T09:16:26.186Z,1011.54
2018-03-27T09:17:26.209Z,1011.47
2018-03-27T09:18:26.235Z,1011.49
2018-03-27T09:19:26.261Z,1011.48
2018-03-27T09:20:26.288Z,1011.5
2018-03-27T09:21:26.313Z,1011.48
2018-03-27T09:22:26.339Z,1011.51
2018-03-27T09:23:26.366Z,1011.44
2018-03-27T09:24:26.392Z,1011.45
2018-03-27T09:25:26.417Z,1011.43
2018-03-27T09:26:26.443Z,1011.4
2018-03-27T09:27:26.470Z,1011.39
2018-03-27T09:28:26.496Z,1011.41
2018-03-27T09:29:26.521Z,1011.42
2018-03-27T09:30:26.547Z,1011.38
2018-03-27T09:31:26.573Z,1011.39
2018-03-27T09:32:26.598Z,1011.39
2018-03-27T09:34:26.648Z,1011.41
2018-03-27T09:35:26.674Z,1011.43
2018-03-27T09:36:26.699Z,1011.38
2018-03-27T09:37:26.723Z,1011.33
2018-03-27T09:38:26.748Z,1011.35
2018-03-27T09:39:26.773Z,1011.33
2018-03-27T09:40:26.811Z,1011.35
2018-03-27T09:41:26.822Z,1011.3
2018-03-27T09:42:26.847Z,1011.33
2018-03-27T09:43:26.871Z,1011.33
2018-03-27T09:44:26.894Z,1011.31
2018-03-27T09:45:26.942Z,1011.31
2018-03-27T09:46:26.943Z,1011.28
2018-03-27T09:47:26.966Z,1011.28
2018-03-27T09:48:26.990Z,1011.29
2018-03-27T09:50:27.038Z,1011.25
2018-03-27T09:51:27.061Z,1011.29
2018-03-27T09:52:27.085Z,1011.25
2018-03-27T09:53:27.108Z,1011.26
2018-03-27T09:54:27.130Z,1011.27
2018-03-27T09:55:27.155Z,1011.23
2018-03-27T09:56:27.178Z,1011.22
2018-03-27T09:57:27.201Z,1011.21
2018-03-27T09:58:27.237Z,1011.24
2018-03-27T09:59:27.252Z,1011.23
2018-03-27T10:00:27.271Z,1011.24
2018-03-27T10:01:27.293Z,1011.27
2018-03-27T10:02:27.316Z,1011.22
2018-03-27T10:03:27.339Z,1011.25
2018-03-27T10:04:27.361Z,1011.24
2018-03-27T10:06:27.406Z,1011.26
2018-03-27T10:07:27.429Z,1011.28
2018-03-27T10:08:27.453Z,1011.27
2018-03-27T10:09:27.475Z,1011.26
2018-03-27T10:10:27.502Z,1011.23
2018-03-27T10:11:27.521Z,1011.21
2018-03-27T10:12:27.543Z,1011.23
2018-03-27T10:13:27.565Z,1011.23
2018-03-27T10:14:27.589Z,1011.2
2018-03-27T10:15:27.614Z,1011.22
2018-03-27T10:16:27.640Z,1011.17
2018-03-27T10:17:27.655Z,1011.16
2018-03-27T10:18:27.678Z,1011.17
2018-03-27T10:19:27.705Z,1011.18
2018-03-27T10:20:27.723Z,1011.12
2018-03-27T10:22:27.769Z,1011.1
2018-03-27T10:23:27.791Z,1011.12
2018-03-27T10:24:27.813Z,1011.12
2018-03-27T10:25:27.836Z,1011.13
2018-03-27T10:26:27.866Z,1011.1
2018-03-27T10:27:27.881Z,1011.06
2018-03-27T10:28:27.904Z,1011.05
2018-03-27T10:29:27.925Z,1011.04
2018-03-27T10:30:27.953Z,1011.11
2018-03-27T10:31:27.971Z,1011.03
2018-03-27T10:32:27.992Z,1011.04
2018-03-27T10:33:28.015Z,1011.03
2018-03-27T10:34:28.037Z,1011.01
2018-03-27T10:35:28.123Z,1011
2018-03-27T10:37:28.104Z,1011
2018-03-27T10:38:28.164Z,1011.02
2018-03-27T10:39:28.147Z,1011
2018-03-27T10:40:28.169Z,1011.01
2018-03-27T10:41:28.191Z,1011.04
2018-03-27T10:42:28.212Z,1011.01
2018-03-27T10:43:28.234Z,1010.95
2018-03-27T10:44:28.256Z,1011.01
2018-03-27T10:45:28.320Z,1011
2018-03-27T10:46:28.299Z,1010.97
2018-03-27T10:47:28.321Z,1010.97
2018-03-27T10:48:28.343Z,1011.01
2018-03-27T10:49:28.365Z,1010.99
2018-03-27T10:50:28.393Z,1010.96
2018-03-27T10:51:28.417Z,1010.97
2018-03-27T10:52:28.430Z,1010.99
2018-03-27T10:53:28.451Z,1010.93
2018-03-27T10:54:28.474Z,1010.92
2018-03-27T10:55:28.496Z,1010.96
2018-03-27T10:56:28.517Z,1010.95
2018-03-27T10:57:28.538Z,1010.88
2018-03-27T10:58:28.625Z,1010.92
2018-03-27T10:59:28.583Z,1010.93
2018-03-27T11:00:28.614Z,1010.9
2018-03-27T11:01:28.626Z,1010.87
2018-03-27T11:02:28.648Z,1010.87
2018-03-27T11:03:28.671Z,1010.86
2018-03-27T11:04:28.691Z,1010.85
2018-03-27T11:05:28.713Z,1010.82
2018-03-27T11:06:28.735Z,1010.85
2018-03-27T11:07:28.756Z,1010.82
2018-03-27T11:09:28.801Z,1010.83
2018-03-27T11:10:28.823Z,1010.8
2018-03-27T11:11:28.844Z,1010.82
2018-03-27T11:12:28.869Z,1010.81
2018-03-27T11:13:28.888Z,1010.83
2018-03-27T11:14:28.911Z,1010.83
2018-03-27T11:15:28.931Z,1010.84
2018-03-27T11:16:28.953Z,1010.87
2018-03-27T11:17:29.033Z,1010.83
2018-03-27T11:18:28.998Z,1010.8
2018-03-27T11:19:29.018Z,1010.79
2018-03-27T11:20:29.041Z,1010.78
2018-03-27T11:21:29.062Z,1010.72
2018-03-27T11:22:29.084Z,1010.76
2018-03-27T11:23:29.108Z,1010.75
2018-03-27T11:25:29.149Z,1010.75
2018-03-27T11:26:29.171Z,1010.73
2018-03-27T11:27:29.193Z,1010.75
2018-03-27T11:28:29.215Z,1010.73
2018-03-27T11:29:29.249Z,1010.73
2018-03-27T11:30:29.258Z,1010.73
2018-03-27T11:31:29.279Z,1010.73
2018-03-27T11:32:29.302Z,1010.7
2018-03-27T11:33:29.323Z,1010.67
2018-03-27T11:34:29.345Z,1010.69
2018-03-27T11:35:29.370Z,1010.69
2018-03-27T11:36:29.389Z,1010.67
2018-03-27T11:37:29.411Z,1010.67
2018-03-27T11:38:29.433Z,1010.66
2018-03-27T11:39:29.455Z,1010.69
2018-03-27T11:41:29.499Z,1010.69
2018-03-27T11:42:29.521Z,1010.67
2018-03-27T11:43:29.542Z,1010.67
2018-03-27T11:44:29.563Z,1010.65
2018-03-27T11:45:29.589Z,1010.67
2018-03-27T11:46:29.608Z,1010.62
2018-03-27T11:47:29.630Z,1010.6
2018-03-27T11:48:29.651Z,1010.63
2018-03-27T11:49:29.674Z,1010.65
2018-03-27T11:50:29.698Z,1010.63
2018-03-27T11:51:29.716Z,1010.65
2018-03-27T11:52:29.739Z,1010.61
2018-03-27T11:53:29.761Z,1010.6
2018-03-27T11:54:29.793Z,1010.57
2018-03-27T11:55:29.803Z,1010.54
2018-03-27T11:57:29.851Z,1010.57
2018-03-27T11:58:30.121Z,1010.56
2018-03-27T11:59:29.892Z,1010.56
2018-03-27T12:00:29.913Z,1010.55
2018-03-27T12:01:29.938Z,1010.54
2018-03-27T12:02:29.957Z,1010.5
2018-03-27T12:03:29.979Z,1010.51
2018-03-27T12:04:30.005Z,1010.52
2018-03-27T12:05:30.024Z,1010.48
2018-03-27T12:06:30.045Z,1010.51
2018-03-27T12:07:30.126Z,1010.54
2018-03-27T12:08:30.090Z,1010.53
2018-03-27T12:09:30.111Z,1010.5
2018-03-27T12:10:30.134Z,1010.49
2018-03-27T12:12:30.178Z,1010.42
2018-03-27T12:13:30.199Z,1010.44
2018-03-27T12:14:30.222Z,1010.44
2018-03-27T12:15:30.247Z,1010.38
2018-03-27T12:16:30.266Z,1010.36
2018-03-27T12:17:30.287Z,1010.33
2018-03-27T12:18:30.310Z,1010.38
2018-03-27T12:19:30.332Z,1010.34
2018-03-27T12:20:30.353Z,1010.31
2018-03-27T12:21:30.375Z,1010.3
2018-03-27T12:22:30.396Z,1010.31
2018-03-27T12:23:30.422Z,1010.27
2018-03-27T12:24:30.440Z,1010.28
2018-03-27T12:25:30.461Z,1010.27
2018-03-27T12:26:30.488Z,1010.26
2018-03-27T12:27:30.508Z,1010.28
2018-03-27T12:28:30.527Z,1010.27
2018-03-27T12:29:30.549Z,1010.24
2018-03-27T12:30:30.571Z,1010.26
2018-03-27T12:31:30.594Z,1010.24
2018-03-27T12:32:30.613Z,1010.21
2018-03-27T12:33:30.635Z,1010.22
2018-03-27T12:34:30.656Z,1010.23
2018-03-27T12:35:30.677Z,1010.24
2018-03-27T12:36:30.699Z,1010.2
2018-03-27T12:37:30.720Z,1010.22
2018-03-27T12:38:30.743Z,1010.22
2018-03-27T12:39:30.763Z,1010.25
2018-03-27T12:40:30.785Z,1010.2
2018-03-27T12:41:30.807Z,1010.2
2018-03-27T12:42:30.827Z,1010.17
2018-03-27T12:44:30.872Z,1010.17
2018-03-27T12:45:30.892Z,1010.16
2018-03-27T12:46:30.912Z,1010.18
2018-03-27T12:47:30.934Z,1010.18
2018-03-27T12:48:30.956Z,1010.14
2018-03-27T12:49:30.978Z,1010.14
2018-03-27T12:50:30.998Z,1010.13